Terminal Aerodrome Forecast
Issued by NWS Binghamton, NY

Home | Current Version | Previous Version | Text Only | Print | Product List | Glossary On
Versions: 1 2 3 4 5 6 7 8 9 10 11 12 13 14 15 16 17 18 19 20 21 22 23 24 25
000
FTUS41 KBGM 261100
TAFAVP
TAF
KAVP 261138Z 2612/2712 06005KT 5SM -SN OVC025
      TEMPO 2612/2615 1SM -SN
     FM261500 04005KT 3SM -SHSN OVC025
     FM261800 02008KT 1 1/2SM -SN OVC020=

USA.gov is the U.S. government's official web portal to all federal, state and local government web resources and services.